Latest Weather Observations for Alva Beach

IDQ60801

Issued at 9:02 pm EST Thursday 18 December 2014 (issued every 30 minutes, with the page automatically refreshed every 10 minutes)

About weather observations | Map of weather stations | Latest weather observations for QLD | Other Formats
Station Details ID: 033295 Name: ALVA BEACH Lat: -19.46 Lon: 147.48 Height: 7.5 m
Data from the previous 72 hours. | See also: Recent months at Alva Beach
Date/Time
EST
Temp
°C
App
Temp
°C
Dew
Point
Rel
Hum
%
Delta-T
°C
Wind Press
QNH
hPa
Press
MSL
hPa
Rain
since 9 am
mm
Dir
 
Spd
km/h
Gust
km/h
Spd
kts
Gust
kts
18/09:00pm 27.4 27.5 20.0 64 4.8 NNE 19 22 10 12 1011.6 1011.6 0.0
18/08:30pm 27.3 27.7 19.9 64 4.8 NNE 17 22 9 12 1011.2 1011.2 0.0
18/08:00pm 27.5 28.5 20.3 65 4.7 N 15 20 8 11 1011.2 1011.2 0.0
18/07:30pm 27.5 27.8 19.6 62 5.1 N 17 24 9 13 1010.7 1010.7 0.0
18/07:00pm 27.5 27.5 19.8 63 5.0 N 19 24 10 13 1010.3 1010.3 0.0
18/06:30pm 27.7 28.6 20.0 63 5.0 N 15 24 8 13 1009.9 1009.9 0.0
18/06:00pm 27.8 28.6 19.8 61 5.2 N 15 20 8 11 1009.5 1009.5 0.0
18/05:30pm 28.4 29.6 19.9 60 5.6 N 13 24 7 13 1009.6 1009.6 0.0
18/05:00pm 28.7 29.0 19.6 58 5.9 N 17 24 9 13 1009.1 1009.1 0.0
18/04:30pm 28.7 28.5 19.3 56 6.1 N 19 30 10 16 1008.5 1008.5 0.0
18/04:00pm 29.0 28.6 19.0 54 6.5 N 19 28 10 15 1008.5 1008.5 0.0
18/03:30pm 29.5 29.7 20.1 57 6.2 N 19 24 10 13 1008.7 1008.7 0.0
18/03:00pm 30.0 29.9 20.0 55 6.6 N 20 30 11 16 1009.3 1009.3 0.0
18/02:30pm 29.9 29.8 19.6 54 6.7 N 19 26 10 14 1009.7 1009.7 0.0
18/02:00pm 29.7 30.0 19.7 55 6.6 N 17 24 9 13 1010.2 1010.2 0.0
18/01:30pm 29.9 30.7 20.7 57 6.1 N 17 26 9 14 1010.4 1010.4 0.0
18/01:00pm 30.2 30.4 20.2 55 6.6 N 19 28 10 15 1010.8 1010.8 0.0
18/12:30pm 30.5 30.3 19.8 52 7.0 N 20 26 11 14 1011.1 1011.1 0.0
18/12:00pm 29.6 29.6 19.0 53 6.9 N 17 26 9 14 1011.7 1011.7 0.0
18/11:30am 29.8 29.9 19.2 53 6.9 N 17 24 9 13 1011.8 1011.8 0.0
18/11:00am 29.3 29.5 19.3 55 6.5 N 17 26 9 14 1011.9 1011.9 0.0
18/10:30am 29.6 29.8 19.3 54 6.7 N 17 24 9 13 1012.0 1012.0 0.0
18/10:00am 29.9 30.2 20.7 57 6.1 N 20 28 11 15 1012.1 1012.1 0.0
18/09:30am 29.5 30.3 20.6 58 5.9 N 17 24 9 13 1012.1 1012.1 0.0
18/09:00am 29.1 29.2 20.0 58 6.0 N 19 26 10 14 1012.1 1012.1 0.0
18/08:30am 29.1 30.6 20.5 59 5.7 N 13 26 7 14 1012.1 1012.1 0.0
18/08:00am 28.9 29.8 20.1 59 5.8 N 15 26 8 14 1012.0 1012.0 0.0
18/07:30am 28.3 28.8 19.2 57 5.9 N 15 26 8 14 1011.7 1011.7 0.0
18/07:00am 27.9 28.7 19.1 58 5.7 N 13 20 7 11 1011.4 1011.4 0.0
18/06:30am 27.0 29.1 20.1 66 4.5 NNW 9 15 5 8 1011.2 1011.2 0.0
18/06:00am 26.1 27.6 19.7 68 4.1 NNW 11 17 6 9 1010.6 1010.6 0.0
18/05:30am 25.8 27.3 19.7 69 3.9 NNW 11 17 6 9 1010.1 1010.1 0.0
18/05:00am 25.8 27.7 19.7 69 4.0 NNW 9 17 5 9 1009.6 1009.6 0.0
18/04:30am 25.8 27.5 19.4 67 4.1 NNW 9 19 5 10 1009.3 1009.3 0.0
18/04:00am 26.1 27.5 19.5 67 4.3 NNW 11 17 6 9 1009.0 1009.0 0.0
18/03:30am 26.1 27.6 19.7 68 4.1 NNW 11 19 6 10 1008.8 1008.8 0.0
18/03:00am 26.0 27.7 19.4 67 4.3 NNW 9 17 5 9 1009.0 1009.0 0.0
18/02:30am 26.2 27.9 19.3 65 4.4 NNW 9 17 5 9 1009.2 1009.2 0.0
18/02:00am 26.6 28.2 20.0 67 4.3 N 11 20 6 11 1009.2 1009.2 0.0
18/01:30am 26.6 27.1 20.0 67 4.3 N 17 26 9 14 1009.2 1009.2 0.0
18/01:00am 26.6 27.9 20.2 68 4.2 N 13 22 7 12 1009.3 1009.3 0.0
18/12:30am 26.7 28.0 20.1 67 4.3 N 13 20 7 11 1009.9 1009.9 0.0
18/12:00am 26.9 27.9 20.3 67 4.3 N 15 22 8 12 1009.9 1009.9 0.0
 
Date/Time
EST
Temp
°C
App
Temp
°C
Dew
Point
Rel
Hum
%
Delta-T
°C
Wind Press
QNH
hPa
Press
MSL
hPa
Rain
since 9 am
mm
Dir
 
Spd
km/h
Gust
km/h
Spd
kts
Gust
kts
17/11:30pm 26.9 27.5 19.5 64 4.8 N 15 24 8 13 1010.0 1010.0 0.0
17/11:00pm 27.0 28.3 20.1 66 4.5 N 13 22 7 12 1010.2 1010.2 0.0
17/10:30pm 27.1 27.7 19.4 62 5.0 N 15 22 8 12 1010.2 1010.2 0.0
17/10:00pm 27.1 26.9 19.7 64 4.8 N 20 26 11 14 1010.2 1010.2 0.0
17/09:30pm 27.2 26.5 20.3 66 4.5 NNE 24 30 13 16 1009.9 1009.9 0.0
17/09:00pm 27.5 26.6 20.6 66 4.5 NNE 26 32 14 17 1009.5 1009.5 0.0
17/08:30pm 27.6 27.4 21.2 68 4.3 NNE 24 30 13 16 1009.0 1009.0 0.0
17/08:00pm 27.7 27.2 20.8 66 4.6 NNE 24 28 13 15 1008.8 1008.8 0.0
17/07:30pm 27.9 26.8 19.4 60 5.5 NNE 24 30 13 16 1008.6 1008.6 0.0
17/07:00pm 28.0 27.3 19.5 60 5.5 NNE 22 28 12 15 1008.4 1008.4 0.0
17/06:30pm 28.1 27.4 19.6 60 5.5 NNE 22 30 12 16 1008.2 1008.2 0.0
17/06:00pm 28.5 27.7 20.0 60 5.6 N 24 30 13 16 1007.7 1007.7 0.0
17/05:30pm 28.8 27.9 19.1 55 6.3 N 22 28 12 15 1007.4 1007.4 0.0
17/05:00pm 29.0 29.7 21.5 64 5.0 N 20 28 11 15 1007.0 1007.0 0.0
17/04:30pm 29.4 29.3 20.0 57 6.2 N 20 28 11 15 1006.8 1006.8 0.0
17/04:00pm 29.8 29.6 19.8 55 6.6 N 20 28 11 15 1007.0 1007.0 0.0
17/03:30pm 29.9 30.1 20.5 57 6.2 N 20 28 11 15 1007.0 1007.0 0.0
17/03:00pm 29.8 29.9 21.2 60 5.8 N 22 30 12 16 1007.4 1007.4 0.0
17/02:30pm 30.2 29.8 21.0 58 6.1 N 24 35 13 19 1007.5 1007.5 0.0
17/02:00pm 30.4 30.0 20.9 57 6.3 N 24 33 13 18 1007.9 1007.9 0.0
17/01:30pm 30.7 30.5 20.6 54 6.7 N 22 33 12 18 1008.3 1008.3 0.0
17/01:00pm 31.2 32.0 19.9 51 7.5 NNW 15 26 8 14 1008.7 1008.7 0.0
17/12:30pm 30.6 31.7 19.6 51 7.2 NNW 13 24 7 13 1009.1 1009.1 0.0
17/12:00pm 30.0 31.2 21.4 60 5.8 N 17 24 9 13 1009.5 1009.5 0.0
17/11:30am 29.9 30.7 20.7 57 6.1 N 17 28 9 15 1009.6 1009.6 0.0
17/11:00am 30.4 31.2 21.8 60 5.8 N 20 24 11 13 1009.9 1009.9 0.0
17/10:30am 30.0 30.6 20.3 56 6.4 N 17 24 9 13 1010.1 1010.1 0.0
17/10:00am 30.5 31.5 21.0 57 6.3 N 17 22 9 12 1010.4 1010.4 0.0
17/09:30am 29.8 30.7 20.9 59 5.9 N 17 24 9 13 1010.4 1010.4 0.0
17/09:00am 29.4 30.3 20.8 60 5.7 N 17 26 9 14 1009.9 1009.9 0.0
17/08:30am 29.5 30.6 21.2 61 5.5 N 17 28 9 15 1009.7 1009.7 0.0
17/08:00am 29.0 30.1 20.4 59 5.7 N 15 24 8 13 1009.8 1009.8 0.0
17/07:30am 28.7 30.1 20.4 60 5.5 N 13 20 7 11 1009.7 1009.7 0.0
17/07:00am 28.6 30.1 20.6 62 5.3 N 13 22 7 12 1009.5 1009.5 0.0
17/06:30am 27.5 29.6 20.1 64 4.8 NNW 9 15 5 8 1009.3 1009.3 0.0
17/06:00am 26.7 28.9 20.5 69 4.1 NNW 9 17 5 9 1008.9 1008.9 0.0
17/05:30am 26.2 28.3 21.0 73 3.4 NNW 11 15 6 8 1008.5 1008.5 0.0
17/05:00am 26.2 28.5 20.7 71 3.6 NNW 9 15 5 8 1008.1 1008.1 0.0
17/04:30am 26.5 28.6 21.0 72 3.6 NNW 11 15 6 8 1007.6 1007.6 0.0
17/04:00am 26.5 29.2 21.3 73 3.5 NNW 9 13 5 7 1007.3 1007.3 0.0
17/03:30am 26.2 28.7 21.0 73 3.4 NNW 9 13 5 7 1007.3 1007.3 0.0
17/03:00am 26.3 28.7 20.8 71 3.6 NNW 9 13 5 7 1007.5 1007.5 0.0
17/02:30am 26.3 29.0 20.6 71 3.7 NNW 7 13 4 7 1007.5 1007.5 0.0
17/02:00am 26.4 28.6 20.5 70 3.9 NNW 9 15 5 8 1007.7 1007.7 0.0
17/01:30am 26.4 28.6 20.5 70 3.9 NNW 9 13 5 7 1008.0 1008.0 0.0
17/01:00am 26.9 29.0 21.0 70 3.9 N 11 17 6 9 1008.3 1008.3 0.0
17/12:30am 26.8 29.0 20.4 68 4.2 N 9 15 5 8 1008.6 1008.6 0.0
17/12:00am 27.2 28.2 20.3 66 4.5 N 15 22 8 12 1008.8 1008.8 0.0
 
Date/Time
EST
Temp
°C
App
Temp
°C
Dew
Point
Rel
Hum
%
Delta-T
°C
Wind Press
QNH
hPa
Press
MSL
hPa
Rain
since 9 am
mm
Dir
 
Spd
km/h
Gust
km/h
Spd
kts
Gust
kts
16/11:30pm 27.2 28.8 20.0 64 4.7 N 11 19 6 10 1009.2 1009.2 0.0
16/11:00pm 27.1 29.0 19.7 64 4.8 N 9 19 5 10 1009.3 1009.3 0.0
16/10:30pm 27.4 29.0 20.7 67 4.4 N 13 19 7 10 1009.5 1009.5 0.0
16/10:00pm 27.5 29.1 20.8 67 4.4 N 13 19 7 10 1009.4 1009.4 0.0
16/09:30pm 27.6 28.4 20.7 66 4.6 N 17 22 9 12 1009.4 1009.4 0.0
16/09:00pm 27.8 28.8 21.1 67 4.5 N 17 24 9 13 1009.2 1009.2 0.0
16/08:30pm 28.0 28.9 21.5 67 4.3 N 19 24 10 13 1009.1 1009.1 0.0
16/08:00pm 27.9 28.4 21.2 67 4.5 N 20 26 11 14 1009.0 1009.0 0.0
16/07:30pm 27.9 28.2 20.7 65 4.8 N 20 24 11 13 1008.7 1008.7 0.0
16/07:00pm 27.9 28.3 21.0 66 4.6 N 20 26 11 14 1008.5 1008.5 0.0
16/06:30pm 28.1 28.5 20.6 63 4.9 N 19 26 10 14 1008.4 1008.4 0.0
16/06:00pm 28.4 28.9 21.2 65 4.8 N 20 26 11 14 1008.1 1008.1 0.0
16/05:30pm 28.6 28.7 21.1 64 5.0 N 22 28 12 15 1008.1 1008.1 0.0
16/05:00pm 29.0 28.9 20.7 61 5.5 NNE 22 28 12 15 1008.0 1008.0 0.0
16/04:30pm 29.3 29.7 21.0 61 5.5 N 20 26 11 14 1007.8 1007.8 0.0
16/04:00pm 29.4 29.3 20.0 57 6.2 N 20 30 11 16 1007.7 1007.7 0.0
16/03:30pm 29.7 29.9 21.4 61 5.6 N 22 28 12 15 1007.9 1007.9 0.0
16/03:00pm 30.2 30.2 21.6 60 5.8 NNE 24 30 13 16 1008.2 1008.2 0.0
16/02:30pm 30.3 30.2 20.8 56 6.3 N 22 30 12 16 1008.7 1008.7 0.0
16/02:00pm 30.5 31.3 21.8 59 5.9 N 20 26 11 14 1009.1 1009.1 0.0
16/01:30pm 30.6 30.8 21.4 58 6.2 NNE 22 28 12 15 1009.3 1009.3 0.0
16/01:00pm 30.4 31.4 21.8 60 5.8 NNE 19 26 10 14 1009.8 1009.8 0.0
16/12:30pm 30.0 30.2 20.5 56 6.3 NNE 20 26 11 14 1010.2 1010.2 0.0
16/12:00pm 30.0 30.3 20.8 57 6.1 NNE 20 26 11 14 1010.6 1010.6 0.0
16/11:30am 30.1 30.9 20.6 56 6.3 N 17 24 9 13 1011.1 1011.1 0.0
16/11:00am 30.0 30.5 20.8 57 6.1 NNE 19 24 10 13 1011.1 1011.1 0.0
16/10:30am 29.9 31.3 21.0 59 5.9 NNE 15 20 8 11 1011.4 1011.4 0.0
16/10:00am 29.2 30.5 20.9 61 5.5 NNE 15 20 8 11 1011.7 1011.7 0.0
16/09:30am 28.7 29.9 20.7 62 5.3 NE 15 19 8 10 1011.8 1011.8 0.0
16/09:00am 29.0 30.8 20.4 59 5.7 NNE 11 15 6 8 1011.9 1011.9 0.0
16/08:30am 28.3 30.0 20.1 61 5.4 NE 11 15 6 8 1011.8 1011.8 0.0
16/08:00am 28.6 30.0 20.3 60 5.5 NE 13 17 7 9 1011.5 1011.5 0.0
16/07:30am 28.6 30.9 20.6 62 5.3 NE 9 13 5 7 1011.5 1011.5 0.0
16/07:00am 28.0 30.0 20.0 61 5.2 NE 9 13 5 7 1011.2 1011.2 0.0
16/06:30am 27.5 29.4 19.8 63 5.0 E 9 13 5 7 1010.6 1010.6 0.0
16/06:00am 27.0 28.9 20.6 68 4.2 NE 11 15 6 8 1010.2 1010.2 0.0
16/05:30am 26.4 28.0 20.7 71 3.7 ENE 13 17 7 9 1009.6 1009.6 0.0
16/05:00am 26.4 27.9 20.5 70 3.9 NE 13 15 7 8 1009.2 1009.2 0.0
16/04:30am 26.5 28.2 20.1 68 4.2 NE 11 15 6 8 1009.0 1009.0 0.0
16/04:00am 26.5 27.8 20.1 68 4.2 NE 13 15 7 8 1009.0 1009.0 0.0
16/03:30am 26.5 27.8 20.1 68 4.2 NE 13 17 7 9 1008.9 1008.9 0.0
16/03:00am 26.4 27.2 19.8 67 4.3 NE 15 20 8 11 1008.9 1008.9 0.0
16/02:30am 26.6 27.7 20.4 69 4.1 NE 15 19 8 10 1008.9 1008.9 0.0
16/02:00am 26.6 27.9 20.9 71 3.8 NE 15 19 8 10 1009.0 1009.0 0.0
16/01:30am 26.6 27.8 20.7 70 3.9 NE 15 19 8 10 1009.3 1009.3 0.0
16/01:00am 26.8 28.0 20.6 69 4.1 ENE 15 17 8 9 1009.7 1009.7 0.0
16/12:30am 26.8 28.0 20.6 69 4.1 ENE 15 19 8 10 1010.1 1010.1 0.0
16/12:00am 26.8 27.6 20.6 69 4.1 ENE 17 19 9 10 1010.5 1010.5 0.0
 
Date/Time
EST
Temp
°C
App
Temp
°C
Dew
Point
Rel
Hum
%
Delta-T
°C
Wind Press
QNH
hPa
Press
MSL
hPa
Rain
since 9 am
mm
Dir
 
Spd
km/h
Gust
km/h
Spd
kts
Gust
kts
15/11:30pm 27.2 28.1 21.5 71 3.8 ENE 19 24 10 13 1010.8 1010.8 0.0
15/11:00pm 27.1 27.9 20.7 68 4.2 NE 17 22 9 12 1011.1 1011.1 0.0
15/10:30pm 27.3 27.8 20.9 68 4.2 NE 19 20 10 11 1011.3 1011.3 0.0
15/10:00pm 27.4 27.8 20.7 67 4.4 NE 19 22 10 12 1011.1 1011.1 0.0
15/09:30pm 27.4 27.9 21.2 69 4.1 NE 20 26 11 14 1010.6 1010.6 0.0

Other Formats:

Comma delimited format used in spreadsheet applications
http://www.bom.gov.au/fwo/IDQ60801/IDQ60801.95296.axf

JavaScript Object Notation format (JSON) in row-major order
http://www.bom.gov.au/fwo/IDQ60801/IDQ60801.95296.json